createdAt,value
2017-11-01T00:02:02.809Z,0.70
2017-11-01T00:04:31.116Z,0.70
2017-11-01T00:06:58.701Z,0.90
2017-11-01T00:09:26.268Z,0.70
2017-11-01T00:11:53.821Z,0.70
2017-11-01T00:14:21.395Z,0.80
2017-11-01T00:16:49.013Z,0.70
2017-11-01T00:19:16.787Z,0.83
2017-11-01T00:21:44.331Z,0.80
2017-11-01T00:24:11.883Z,0.73
2017-11-01T00:26:39.460Z,0.70
2017-11-01T00:29:07.010Z,0.77
2017-11-01T00:31:34.527Z,0.80
2017-11-01T00:34:02.879Z,0.87
2017-11-01T00:36:30.423Z,0.60
2017-11-01T00:38:57.944Z,0.60
2017-11-01T00:41:26.267Z,0.60
2017-11-01T00:43:53.796Z,0.80
2017-11-01T00:46:21.367Z,0.50
2017-11-01T00:48:48.976Z,0.60
2017-11-01T00:51:17.302Z,0.90
2017-11-01T00:53:44.871Z,0.50
2017-11-01T00:56:12.611Z,0.73
2017-11-01T00:58:40.158Z,0.63
2017-11-01T01:01:07.741Z,0.70
2017-11-01T01:03:35.259Z,0.60
2017-11-01T01:06:03.554Z,0.70
2017-11-01T01:08:31.146Z,0.70
2017-11-01T01:10:58.675Z,0.80
2017-11-01T01:13:26.214Z,0.60
2017-11-01T01:15:54.540Z,0.80
2017-11-01T01:18:22.063Z,0.60
2017-11-01T01:20:49.780Z,0.70
2017-11-01T01:23:17.308Z,0.80
2017-11-01T01:25:44.913Z,0.70
2017-11-01T01:28:12.437Z,0.50
2017-11-01T01:30:39.957Z,0.80
2017-11-01T01:33:08.299Z,0.63
2017-11-01T01:35:35.840Z,0.80
2017-11-01T01:38:03.416Z,0.50
2017-11-01T01:40:30.958Z,0.50
2017-11-01T01:42:58.494Z,0.50
2017-11-01T01:45:26.067Z,0.60
2017-11-01T01:47:53.659Z,0.60
2017-11-01T01:50:21.203Z,0.60
2017-11-01T01:52:48.785Z,0.50
2017-11-01T01:55:16.312Z,0.60
2017-11-01T01:57:44.076Z,0.70
2017-11-01T02:00:11.661Z,0.60
2017-11-01T02:02:39.241Z,0.60
2017-11-01T02:05:07.560Z,0.60
2017-11-01T02:07:35.119Z,0.60
2017-11-01T02:10:02.664Z,0.60
2017-11-01T02:12:30.261Z,0.70
2017-11-01T02:14:57.819Z,0.57
2017-11-01T02:17:25.371Z,0.60
2017-11-01T02:19:53.158Z,0.77
2017-11-01T02:22:20.713Z,0.70
2017-11-01T02:24:48.283Z,0.50
2017-11-01T02:27:15.825Z,0.50
2017-11-01T02:29:43.394Z,0.60
2017-11-01T02:32:10.916Z,0.50
2017-11-01T02:34:38.523Z,0.60
2017-11-01T02:37:06.288Z,0.73
2017-11-01T02:39:34.745Z,0.50
2017-11-01T02:42:02.357Z,0.50
2017-11-01T02:44:30.647Z,0.50
2017-11-01T02:46:58.217Z,0.60
2017-11-01T02:49:25.756Z,0.60
2017-11-01T02:51:53.292Z,0.80
2017-11-01T02:54:20.985Z,0.60
2017-11-01T02:56:48.527Z,0.60
2017-11-01T02:59:16.838Z,0.60
2017-11-01T03:01:44.388Z,0.70
2017-11-01T03:04:11.927Z,0.40
2017-11-01T03:06:39.507Z,0.60
2017-11-01T03:09:07.047Z,0.50
2017-11-01T03:11:36.195Z,0.60
2017-11-01T03:14:03.719Z,0.70
2017-11-01T03:16:31.269Z,0.60
2017-11-01T03:18:58.841Z,0.50
2017-11-01T03:21:26.376Z,0.60
2017-11-01T03:23:54.687Z,0.50
2017-11-01T03:26:22.446Z,0.50
2017-11-01T03:28:49.988Z,0.60
2017-11-01T03:31:17.536Z,0.40
2017-11-01T03:33:45.888Z,0.57
2017-11-01T03:36:13.421Z,0.80
2017-11-01T03:38:40.996Z,0.70
2017-11-01T03:41:08.539Z,1.27
2017-11-01T03:43:36.062Z,0.57
2017-11-01T03:46:03.637Z,0.50
2017-11-01T03:48:31.196Z,0.40
2017-11-01T03:51:00.464Z,0.50
2017-11-01T03:53:28.807Z,0.50
2017-11-01T03:55:56.731Z,0.60
2017-11-01T03:58:24.315Z,0.50
2017-11-01T04:00:51.943Z,0.60
2017-11-01T04:03:19.502Z,0.50
2017-11-01T04:05:47.103Z,0.60
2017-11-01T04:08:14.690Z,0.67
2017-11-01T04:10:42.276Z,0.60
2017-11-01T04:13:10.590Z,0.50
2017-11-01T04:15:38.170Z,0.50
2017-11-01T04:18:11.530Z,0.60
2017-11-01T04:20:39.098Z,0.50
2017-11-01T04:23:06.619Z,0.50
2017-11-01T04:25:34.931Z,0.40
2017-11-01T04:28:03.450Z,0.50
2017-11-01T04:30:31.837Z,0.50
2017-11-01T04:33:01.360Z,0.60
2017-11-01T04:35:28.980Z,0.60
2017-11-01T04:37:56.506Z,0.50
2017-11-01T04:40:24.034Z,0.50
2017-11-01T04:42:52.440Z,0.70
2017-11-01T04:45:20.016Z,0.50
2017-11-01T04:50:30.498Z,0.60
2017-11-01T04:52:58.052Z,0.57
2017-11-01T04:55:25.576Z,0.67
2017-11-01T04:57:53.931Z,0.40
2017-11-01T05:00:22.368Z,0.50
2017-11-01T05:02:49.893Z,0.50
2017-11-01T05:05:18.316Z,0.60
2017-11-01T05:07:45.869Z,0.50
2017-11-01T05:10:16.396Z,0.57
2017-11-01T05:12:44.108Z,0.40
2017-11-01T05:15:13.618Z,0.50
2017-11-01T05:17:41.968Z,0.47
2017-11-01T05:20:09.562Z,0.47
2017-11-01T05:22:37.130Z,0.50
2017-11-01T05:25:07.372Z,0.50
2017-11-01T05:27:35.765Z,0.60
2017-11-01T05:30:03.571Z,0.57
2017-11-01T05:32:31.102Z,0.50
2017-11-01T05:34:58.676Z,0.30
2017-11-01T05:37:26.258Z,0.60
2017-11-01T05:39:53.817Z,0.50
2017-11-01T05:42:22.157Z,0.50
2017-11-01T05:44:49.677Z,0.50
2017-11-01T05:47:17.561Z,0.50
2017-11-01T05:49:45.142Z,0.50
2017-11-01T05:52:12.718Z,0.80
2017-11-01T05:54:40.358Z,0.80
2017-11-01T05:57:07.878Z,0.60
2017-11-01T05:59:36.217Z,0.50
2017-11-01T06:02:03.757Z,0.50
2017-11-01T06:04:31.316Z,0.60
2017-11-01T06:06:58.850Z,0.40
2017-11-01T06:09:26.436Z,0.53
2017-11-01T06:11:53.995Z,0.63
2017-11-01T06:14:21.542Z,0.50
2017-11-01T06:16:49.137Z,0.50
2017-11-01T06:19:16.654Z,0.60
2017-11-01T06:21:44.176Z,0.60
2017-11-01T06:24:12.523Z,0.70
2017-11-01T06:26:40.358Z,1.10
2017-11-01T06:29:07.892Z,0.80
2017-11-01T06:31:36.227Z,0.60
2017-11-01T06:34:03.738Z,0.63
2017-11-01T06:36:31.398Z,1.07
2017-11-01T06:38:58.946Z,1.13
2017-11-01T06:41:27.284Z,0.70
2017-11-01T06:43:54.865Z,1.20
2017-11-01T06:46:22.510Z,0.93
2017-11-01T06:48:50.108Z,1.63
2017-11-01T06:51:18.428Z,1.00
2017-11-01T06:53:46.112Z,1.13
2017-11-01T06:56:13.687Z,1.10
2017-11-01T06:58:41.195Z,1.67
2017-11-01T07:01:15.322Z,1.57
2017-11-01T07:03:42.967Z,1.07
2017-11-01T07:06:10.539Z,1.00
2017-11-01T07:08:38.454Z,1.80
2017-11-01T07:11:06.766Z,2.00
2017-11-01T07:13:34.339Z,2.20
2017-11-01T07:16:01.968Z,1.60
2017-11-01T07:18:30.279Z,1.90
2017-11-01T07:20:57.872Z,1.20
2017-11-01T07:23:25.454Z,1.30
2017-11-01T07:25:53.768Z,2.20
2017-11-01T07:28:21.342Z,1.77
2017-11-01T07:30:48.913Z,1.43
2017-11-01T07:33:16.474Z,3.80
2017-11-01T07:35:44.008Z,2.30
2017-11-01T07:38:11.571Z,1.87
2017-11-01T07:40:39.112Z,2.00
2017-11-01T07:43:06.682Z,1.50
2017-11-01T07:45:34.221Z,1.83
2017-11-01T07:48:01.899Z,1.57
2017-11-01T07:50:29.577Z,1.50
2017-11-01T07:52:57.137Z,1.77
2017-11-01T07:55:24.692Z,1.90
2017-11-01T07:57:52.272Z,1.30
2017-11-01T08:00:20.031Z,1.87
2017-11-01T08:02:48.387Z,1.83
2017-11-01T08:05:15.940Z,1.90
2017-11-01T08:07:43.585Z,2.30
2017-11-01T08:10:11.920Z,1.70
2017-11-01T08:12:39.510Z,1.50
2017-11-01T08:15:07.894Z,1.67
2017-11-01T08:17:35.432Z,1.57
2017-11-01T08:20:03.034Z,1.87
2017-11-01T08:22:30.623Z,1.53
2017-11-01T08:24:58.180Z,2.00
2017-11-01T08:27:25.732Z,2.07
2017-11-01T08:29:53.304Z,1.63
2017-11-01T08:32:20.855Z,1.70
2017-11-01T08:34:48.431Z,2.10
2017-11-01T08:37:16.019Z,1.67
2017-11-01T08:39:44.349Z,2.97
2017-11-01T08:42:12.053Z,2.10
2017-11-01T08:44:39.938Z,1.87
2017-11-01T08:47:08.299Z,2.10
2017-11-01T08:49:36.622Z,1.53
2017-11-01T08:52:04.147Z,2.13
2017-11-01T08:54:32.581Z,1.70
2017-11-01T08:57:00.173Z,2.00
2017-11-01T08:59:27.821Z,2.90
2017-11-01T09:01:55.351Z,2.20
2017-11-01T09:04:22.936Z,1.93
2017-11-01T09:06:50.486Z,2.37
2017-11-01T09:09:18.066Z,3.07
2017-11-01T09:11:45.613Z,3.67
2017-11-01T09:14:13.159Z,2.47
2017-11-01T09:16:40.742Z,3.43
2017-11-01T09:19:08.270Z,2.00
2017-11-01T09:21:35.831Z,2.90
2017-11-01T09:24:03.383Z,2.67
2017-11-01T09:26:30.965Z,2.30
2017-11-01T09:28:58.667Z,2.70
2017-11-01T09:31:26.991Z,2.57
2017-11-01T09:33:54.539Z,2.60
2017-11-01T09:36:22.150Z,3.10
2017-11-01T09:38:49.711Z,3.23
2017-11-01T09:41:17.272Z,4.07
2017-11-01T09:43:45.641Z,2.40
2017-11-01T09:46:13.199Z,4.17
2017-11-01T09:48:42.303Z,3.53
2017-11-01T09:51:10.622Z,3.77
2017-11-01T09:53:38.191Z,3.97
2017-11-01T09:56:05.727Z,5.70
2017-11-01T09:58:33.324Z,4.37
2017-11-01T10:01:00.937Z,5.37
2017-11-01T10:03:29.248Z,4.63
2017-11-01T10:05:56.821Z,4.43
2017-11-01T10:08:24.382Z,5.87
2017-11-01T10:10:51.985Z,7.23
2017-11-01T10:13:20.362Z,6.00
2017-11-01T10:15:48.709Z,5.20
2017-11-01T10:18:16.401Z,3.93
2017-11-01T10:20:43.989Z,5.33
2017-11-01T10:23:11.529Z,5.13
2017-11-01T10:25:39.077Z,4.07
2017-11-01T10:28:07.452Z,3.80
2017-11-01T10:30:34.981Z,4.43
2017-11-01T10:33:02.531Z,4.43
2017-11-01T10:35:30.259Z,3.90
2017-11-01T10:37:57.801Z,5.00
2017-11-01T10:40:26.117Z,4.27
2017-11-01T10:42:53.670Z,4.80
2017-11-01T10:45:21.458Z,3.50
2017-11-01T10:47:49.098Z,4.60
2017-11-01T10:50:16.657Z,3.70
2017-11-01T10:52:44.198Z,5.17
2017-11-01T10:55:11.719Z,3.83
2017-11-01T10:57:39.299Z,4.40
2017-11-01T11:00:07.731Z,4.20
2017-11-01T11:02:35.297Z,5.30
2017-11-01T11:05:02.874Z,4.30
2017-11-01T11:07:30.415Z,3.83
2017-11-01T11:09:57.991Z,3.60
2017-11-01T11:12:25.576Z,3.70
2017-11-01T11:14:54.035Z,4.77
2017-11-01T11:17:21.611Z,3.80
2017-11-01T11:19:49.953Z,3.23
2017-11-01T11:22:18.430Z,2.63
2017-11-01T11:24:46.082Z,2.70
2017-11-01T11:27:14.144Z,2.70
2017-11-01T11:29:41.914Z,2.37
2017-11-01T11:32:09.445Z,1.73
2017-11-01T11:34:37.219Z,1.47
2017-11-01T11:37:04.764Z,2.10
2017-11-01T11:39:33.063Z,1.53
2017-11-01T11:42:00.658Z,1.80
2017-11-01T11:44:28.284Z,1.70
2017-11-01T11:46:55.939Z,6.47
2017-11-01T11:49:23.474Z,2.10
2017-11-01T11:51:51.820Z,1.57
2017-11-01T11:54:19.446Z,1.53
2017-11-01T11:56:46.989Z,1.60
2017-11-01T11:59:14.567Z,1.63
2017-11-01T12:01:42.162Z,1.53
2017-11-01T12:04:09.721Z,1.47
2017-11-01T12:06:37.358Z,1.30
2017-11-01T12:09:04.965Z,1.50
2017-11-01T12:11:33.279Z,2.33
2017-11-01T12:14:00.830Z,2.07
2017-11-01T12:16:28.502Z,1.87
2017-11-01T12:18:56.117Z,2.20
2017-11-01T12:21:23.722Z,1.30
2017-11-01T12:23:51.399Z,2.07
2017-11-01T12:26:18.992Z,1.10
2017-11-01T12:28:46.542Z,1.60
2017-11-01T12:31:14.126Z,1.30
2017-11-01T12:33:42.480Z,1.47
2017-11-01T12:36:10.124Z,1.37
2017-11-01T12:38:37.823Z,0.90
2017-11-01T12:41:05.352Z,1.60
2017-11-01T12:43:32.872Z,1.80
2017-11-01T12:46:00.455Z,1.30
2017-11-01T12:48:28.006Z,1.17
2017-11-01T12:50:55.603Z,1.30
2017-11-01T12:53:23.144Z,1.60
2017-11-01T12:55:50.722Z,1.33
2017-11-01T12:58:18.276Z,1.40
2017-11-01T13:00:45.848Z,1.00
2017-11-01T13:03:13.511Z,1.30
2017-11-01T13:05:41.116Z,0.93
2017-11-01T13:08:08.684Z,1.00
2017-11-01T13:10:36.754Z,1.33
2017-11-01T13:13:04.454Z,0.90
2017-11-01T13:15:31.998Z,1.30
2017-11-01T13:17:59.564Z,1.20
2017-11-01T13:20:27.242Z,1.43
2017-11-01T13:22:54.874Z,1.00
2017-11-01T13:25:23.510Z,1.40
2017-11-01T13:27:51.867Z,1.00
2017-11-01T13:30:19.534Z,1.00
2017-11-01T13:32:47.120Z,1.07
2017-11-01T13:35:15.522Z,1.00
2017-11-01T13:37:43.186Z,1.10
2017-11-01T13:40:10.774Z,1.30
2017-11-01T13:42:38.343Z,1.97
2017-11-01T13:45:06.286Z,1.13
2017-11-01T13:47:33.853Z,1.40
2017-11-01T13:50:01.471Z,1.47
2017-11-01T13:52:29.096Z,1.37
2017-11-01T13:54:56.683Z,1.00
2017-11-01T13:57:25.028Z,1.00
2017-11-01T13:59:53.312Z,0.90
2017-11-01T14:02:20.870Z,1.17
2017-11-01T14:04:48.433Z,1.27
2017-11-01T14:07:16.823Z,1.63
2017-11-01T14:09:44.522Z,1.50
2017-11-01T14:12:12.058Z,1.07
2017-11-01T14:14:40.469Z,0.90
2017-11-01T14:17:08.029Z,1.63
2017-11-01T14:19:35.868Z,1.13
2017-11-01T14:22:04.229Z,1.20
2017-11-01T14:24:32.574Z,1.37
2017-11-01T14:27:00.113Z,0.90
2017-11-01T14:29:27.764Z,1.43
2017-11-01T14:31:55.420Z,1.17
2017-11-01T14:34:23.339Z,1.40
2017-11-01T14:36:50.880Z,0.80
2017-11-01T14:39:18.490Z,1.00
2017-11-01T14:41:46.058Z,0.90
2017-11-01T14:44:13.669Z,0.70
2017-11-01T14:46:41.221Z,1.00
2017-11-01T14:49:08.786Z,1.00
2017-11-01T14:51:37.237Z,0.70
2017-11-01T14:54:04.788Z,0.90
2017-11-01T14:56:32.338Z,1.10
2017-11-01T14:58:59.961Z,0.90
2017-11-01T15:01:27.595Z,0.80
2017-11-01T15:03:55.175Z,0.90
2017-11-01T15:06:22.732Z,0.80
2017-11-01T15:08:51.104Z,1.00
2017-11-01T15:11:18.691Z,0.63
2017-11-01T15:13:46.294Z,0.97
2017-11-01T15:16:13.828Z,0.60
2017-11-01T15:18:41.530Z,1.17
2017-11-01T15:21:09.111Z,0.67
2017-11-01T15:23:36.678Z,1.03
2017-11-01T15:26:04.190Z,0.90
2017-11-01T15:28:31.908Z,0.77
2017-11-01T15:30:59.455Z,1.10
2017-11-01T15:33:27.236Z,1.00
2017-11-01T15:35:55.024Z,1.17
2017-11-01T15:38:22.645Z,1.20
2017-11-01T15:40:50.257Z,0.60
2017-11-01T15:43:17.836Z,1.00
2017-11-01T15:45:45.381Z,0.93
2017-11-01T15:48:13.006Z,0.90
2017-11-01T15:50:41.498Z,0.93
2017-11-01T15:53:09.855Z,1.03
2017-11-01T15:55:37.498Z,0.90
2017-11-01T15:58:05.843Z,0.90
2017-11-01T16:00:33.559Z,0.80
2017-11-01T16:03:01.854Z,0.93
2017-11-01T16:05:30.423Z,0.90
2017-11-01T16:07:58.418Z,0.83
2017-11-01T16:10:25.936Z,0.63
2017-11-01T16:12:53.509Z,0.80
2017-11-01T16:15:21.969Z,0.93
2017-11-01T16:17:49.511Z,1.03
2017-11-01T16:20:17.051Z,1.03
2017-11-01T16:22:44.746Z,1.43
2017-11-01T16:25:12.277Z,1.40
2017-11-01T16:27:39.857Z,1.67
2017-11-01T16:30:07.471Z,1.30
2017-11-01T16:32:35.832Z,1.27
2017-11-01T16:35:04.168Z,1.60
2017-11-01T16:37:31.723Z,1.40
2017-11-01T16:39:59.331Z,1.47
2017-11-01T16:42:27.838Z,1.27
2017-11-01T16:44:55.437Z,1.00
2017-11-01T16:47:22.971Z,1.60
2017-11-01T16:49:50.536Z,1.55
2017-11-01T16:52:18.065Z,1.27
2017-11-01T16:54:46.367Z,1.13
2017-11-01T16:57:13.963Z,1.30
2017-11-01T16:59:41.583Z,0.90
2017-11-01T17:02:09.120Z,0.97
2017-11-01T17:04:37.447Z,1.93
2017-11-01T17:07:05.008Z,1.50
2017-11-01T17:09:32.659Z,1.43
2017-11-01T17:12:00.560Z,1.10
2017-11-01T17:14:28.106Z,1.23
2017-11-01T17:16:55.723Z,1.40
2017-11-01T17:19:23.609Z,1.33
2017-11-01T17:21:51.261Z,1.67
2017-11-01T17:24:18.823Z,1.63
2017-11-01T17:26:46.469Z,1.30
2017-11-01T17:29:14.001Z,2.00
2017-11-01T17:31:42.459Z,1.80
2017-11-01T17:34:10.010Z,1.50
2017-11-01T17:36:37.569Z,1.77
2017-11-01T17:39:05.149Z,1.20
2017-11-01T17:41:33.480Z,1.50
2017-11-01T17:44:01.079Z,1.43
2017-11-01T17:46:28.667Z,1.40
2017-11-01T17:48:57.015Z,1.40
2017-11-01T17:51:24.613Z,2.50
2017-11-01T17:53:52.371Z,1.53
2017-11-01T17:56:20.715Z,1.57
2017-11-01T17:58:48.275Z,1.70
2017-11-01T18:01:15.835Z,1.20
2017-11-01T18:03:45.051Z,1.30
2017-11-01T18:06:12.611Z,1.77
2017-11-01T18:08:40.219Z,1.93
2017-11-01T18:11:07.805Z,1.43
2017-11-01T18:13:35.360Z,1.23
2017-11-01T18:16:02.951Z,1.23
2017-11-01T18:18:30.959Z,1.50
2017-11-01T18:20:58.556Z,1.30
2017-11-01T18:23:26.095Z,1.40
2017-11-01T18:25:53.671Z,1.20
2017-11-01T18:28:21.236Z,1.90
2017-11-01T18:30:48.793Z,1.57
2017-11-01T18:33:16.401Z,1.43
2017-11-01T18:35:44.739Z,1.40
2017-11-01T18:38:13.920Z,1.77
2017-11-01T18:40:41.602Z,1.73
2017-11-01T18:43:09.193Z,1.37
2017-11-01T18:45:36.804Z,1.20
2017-11-01T18:48:04.370Z,1.90
2017-11-01T18:50:31.940Z,1.57
2017-11-01T18:52:59.525Z,1.53
2017-11-01T18:55:27.865Z,1.70
2017-11-01T18:57:55.464Z,1.33
2017-11-01T19:00:23.800Z,1.50
2017-11-01T19:02:52.577Z,1.40
2017-11-01T19:05:20.188Z,0.90
2017-11-01T19:07:48.566Z,1.63
2017-11-01T19:10:16.938Z,1.40
2017-11-01T19:12:44.770Z,2.07
2017-11-01T19:15:12.392Z,1.10
2017-11-01T19:17:39.955Z,1.17
2017-11-01T19:20:08.397Z,1.27
2017-11-01T19:22:36.033Z,1.27
2017-11-01T19:25:03.724Z,1.37
2017-11-01T19:27:31.477Z,1.10
2017-11-01T19:29:59.096Z,1.23
2017-11-01T19:32:26.648Z,1.73
2017-11-01T19:34:54.368Z,1.13
2017-11-01T19:37:21.912Z,1.17
2017-11-01T19:39:49.500Z,2.07
2017-11-01T19:42:18.254Z,1.70
2017-11-01T19:44:45.868Z,1.70
2017-11-01T19:47:13.522Z,1.10
2017-11-01T19:49:42.255Z,1.23
2017-11-01T19:52:10.054Z,1.27
2017-11-01T19:54:37.620Z,1.23
2017-11-01T19:57:06.038Z,1.30
2017-11-01T19:59:33.636Z,1.23
2017-11-01T20:02:01.230Z,0.83
2017-11-01T20:04:29.962Z,1.30
2017-11-01T20:06:57.588Z,1.00
2017-11-01T20:09:25.160Z,1.07
2017-11-01T20:11:52.721Z,1.10
2017-11-01T20:14:21.102Z,1.10
2017-11-01T20:16:48.676Z,1.30
2017-11-01T20:19:16.412Z,1.33
2017-11-01T20:21:43.972Z,1.37
2017-11-01T20:24:11.730Z,1.63
2017-11-01T20:26:39.355Z,1.20
2017-11-01T20:29:06.936Z,2.80
2017-11-01T20:31:35.364Z,3.07
2017-11-01T20:34:02.932Z,4.00
2017-11-01T20:36:30.516Z,4.30
2017-11-01T20:38:58.178Z,5.00
2017-11-01T20:41:25.874Z,6.00
2017-11-01T20:43:53.448Z,6.43
2017-11-01T20:46:21.022Z,6.97
2017-11-01T20:48:48.623Z,6.33
2017-11-01T20:51:16.219Z,6.40
2017-11-01T20:53:44.214Z,6.60
2017-11-01T20:56:11.780Z,6.33
2017-11-01T20:58:39.363Z,7.00
2017-11-01T21:01:08.630Z,5.37
2017-11-01T21:03:36.584Z,5.70
2017-11-01T21:06:04.249Z,6.50
2017-11-01T21:08:31.884Z,6.70
2017-11-01T21:11:00.530Z,6.40
2017-11-01T21:13:29.126Z,5.60
2017-11-01T21:15:56.711Z,5.83
2017-11-01T21:18:25.088Z,5.73
2017-11-01T21:20:53.436Z,5.30
2017-11-01T21:23:20.990Z,5.77
2017-11-01T21:25:48.926Z,5.03
2017-11-01T21:28:16.499Z,5.20
2017-11-01T21:30:44.064Z,5.43
2017-11-01T21:33:11.620Z,5.30
2017-11-01T21:35:39.250Z,5.50
2017-11-01T21:38:06.802Z,6.10
2017-11-01T21:40:35.952Z,5.60
2017-11-01T21:43:03.580Z,6.17
2017-11-01T21:45:31.162Z,4.90
2017-11-01T21:47:58.728Z,5.50
2017-11-01T21:50:26.304Z,5.73
2017-11-01T21:52:53.912Z,6.10
2017-11-01T21:55:21.448Z,5.23
2017-11-01T21:57:49.789Z,5.57
2017-11-01T22:00:17.401Z,4.90
2017-11-01T22:02:45.724Z,6.63
2017-11-01T22:05:13.309Z,5.50
2017-11-01T22:07:40.837Z,4.70
2017-11-01T22:10:08.407Z,5.17
2017-11-01T22:12:35.978Z,4.97
2017-11-01T22:15:03.536Z,4.43
2017-11-01T22:17:31.114Z,4.80
2017-11-01T22:19:59.415Z,4.43
2017-11-01T22:22:26.984Z,4.13
2017-11-01T22:24:54.570Z,3.33
2017-11-01T22:27:22.104Z,2.83
2017-11-01T22:29:49.812Z,3.50
2017-11-01T22:32:17.372Z,2.90
2017-11-01T22:34:45.390Z,3.43
2017-11-01T22:37:12.953Z,2.77
2017-11-01T22:39:40.631Z,2.30
2017-11-01T22:42:08.213Z,2.40
2017-11-01T22:44:35.775Z,2.10
2017-11-01T22:47:03.362Z,2.40
2017-11-01T22:49:31.788Z,2.70
2017-11-01T22:51:59.332Z,2.10
2017-11-01T22:54:26.953Z,2.27
2017-11-01T22:56:54.486Z,1.83
2017-11-01T22:59:22.088Z,1.97
2017-11-01T23:01:50.387Z,1.80
2017-11-01T23:04:17.956Z,1.47
2017-11-01T23:06:45.545Z,1.90
2017-11-01T23:09:13.127Z,1.97
2017-11-01T23:11:40.668Z,1.60
2017-11-01T23:14:08.234Z,2.10
2017-11-01T23:16:35.806Z,1.87
2017-11-01T23:19:04.126Z,1.80
2017-11-01T23:21:31.707Z,1.47
2017-11-01T23:23:59.196Z,1.37
2017-11-01T23:26:26.755Z,1.90
2017-11-01T23:28:54.399Z,1.40
2017-11-01T23:31:21.954Z,1.00
2017-11-01T23:33:49.531Z,1.80
2017-11-01T23:36:17.965Z,1.73
2017-11-01T23:38:45.536Z,1.60
2017-11-01T23:41:13.084Z,1.57
2017-11-01T23:43:40.639Z,1.20
2017-11-01T23:46:08.211Z,1.33
2017-11-01T23:48:35.724Z,1.90
2017-11-01T23:51:04.047Z,1.17
2017-11-01T23:53:31.602Z,1.63
2017-11-01T23:56:00.176Z,1.57
2017-11-01T23:58:27.904Z,0.87
